Time;durP1;ratioP1;P1;durP2;ratioP2;P2;SDS_P1;SDS_P2;PMS_P1;PMS_P2;Temp;Humidity;BMP_temperature;BMP_pressure;BME280_temperature;BME280_humidity;BME280_pressure;Samples;Min_cycle;Max_cycle;Signal;HPM_P1;HPM_P2
2023/01/13 00:01:13;;;;;;;0.50;0.50;;;11.80;99.90;;;;;;5015699;28;20283;-56
2023/01/13 00:03:39;;;;;;;0.70;0.70;;;11.90;99.90;;;;;;5018932;28;20203;-57
2023/01/13 00:06:05;;;;;;;0.50;0.50;;;12.00;99.90;;;;;;5035244;28;20202;-60
2023/01/13 00:08:31;;;;;;;0.60;0.60;;;12.10;99.90;;;;;;5034285;28;20630;-57
2023/01/13 00:10:57;;;;;;;0.97;0.50;;;12.00;99.90;;;;;;5028996;28;20330;-58
2023/01/13 00:13:25;;;;;;;1.07;0.50;;;11.90;99.90;;;;;;5025124;28;20303;-56
2023/01/13 00:16:03;;;;;;;0.80;0.80;;;11.90;99.90;;;;;;5025448;28;20232;-55
2023/01/13 00:18:29;;;;;;;0.50;0.50;;;12.00;99.90;;;;;;5021465;28;20200;-56
2023/01/13 00:21:02;;;;;;;0.53;0.40;;;12.10;99.90;;;;;;5026313;28;20205;-56
2023/01/13 00:23:29;;;;;;;1.03;0.60;;;12.20;99.90;;;;;;5025745;28;20199;-55
2023/01/13 00:26:01;;;;;;;0.60;0.60;;;12.00;99.90;;;;;;5023423;28;20196;-57
2023/01/13 00:28:27;;;;;;;0.50;0.50;;;11.70;99.90;;;;;;5028773;28;20223;-55
2023/01/13 00:30:55;;;;;;;0.50;0.50;;;11.50;99.90;;;;;;5028950;28;20205;-57
2023/01/13 00:33:20;;;;;;;0.40;0.40;;;11.60;99.90;;;;;;5028285;28;20287;-56
2023/01/13 00:35:55;;;;;;;0.50;0.50;;;11.80;99.90;;;;;;5028822;28;20242;-55
2023/01/13 00:38:20;;;;;;;0.40;0.40;;;11.70;99.90;;;;;;5022026;28;20289;-56
2023/01/13 00:40:54;;;;;;;1.70;0.50;;;11.70;99.90;;;;;;5029523;28;21045;-55
2023/01/13 00:43:23;;;;;;;0.47;0.47;;;11.70;99.90;;;;;;5024538;28;20758;-57
2023/01/13 00:45:51;;;;;;;0.37;0.37;;;11.70;99.90;;;;;;5021291;28;20564;-57
2023/01/13 00:48:18;;;;;;;0.60;0.60;;;11.60;99.90;;;;;;5028603;28;20676;-57
2023/01/13 00:50:44;;;;;;;0.60;0.60;;;11.60;99.90;;;;;;5024224;28;20210;-55
2023/01/13 00:53:09;;;;;;;2.00;0.47;;;11.50;99.90;;;;;;5029178;28;20203;-56
2023/01/13 00:55:35;;;;;;;0.30;0.30;;;11.50;99.90;;;;;;5023697;28;20197;-55
2023/01/13 00:58:02;;;;;;;0.80;0.80;;;11.50;99.90;;;;;;5028682;28;20183;-56
2023/01/13 01:00:29;;;;;;;0.40;0.40;;;11.50;99.90;;;;;;5011395;28;20203;-56
2023/01/13 01:02:55;;;;;;;0.50;0.50;;;11.60;99.90;;;;;;5024262;28;20252;-57
2023/01/13 01:05:20;;;;;;;1.07;0.40;;;11.80;99.90;;;;;;5027063;28;20203;-56
2023/01/13 01:07:46;;;;;;;0.40;0.40;;;11.80;99.90;;;;;;5032619;28;20617;-57
2023/01/13 01:10:11;;;;;;;0.40;0.40;;;11.70;99.90;;;;;;5031415;28;20690;-57
2023/01/13 01:12:37;;;;;;;1.53;0.57;;;11.80;99.90;;;;;;5036899;28;20196;-56
2023/01/13 01:15:04;;;;;;;0.60;0.50;;;12.00;99.90;;;;;;5038261;28;20593;-57
2023/01/13 01:17:30;;;;;;;0.50;0.50;;;11.80;99.90;;;;;;5026051;28;20236;-56
2023/01/13 01:19:56;;;;;;;0.70;0.53;;;11.70;99.90;;;;;;5027882;28;20231;-56
2023/01/13 01:22:21;;;;;;;0.50;0.50;;;11.70;99.90;;;;;;5026995;28;20205;-57
2023/01/13 01:24:47;;;;;;;0.50;0.50;;;11.60;99.90;;;;;;5028172;28;20199;-56
2023/01/13 01:27:12;;;;;;;0.93;0.50;;;11.60;99.90;;;;;;5029088;28;20273;-56
2023/01/13 01:29:38;;;;;;;0.43;0.43;;;11.50;99.90;;;;;;5030814;28;20302;-55
2023/01/13 01:32:03;;;;;;;0.50;0.50;;;11.40;99.90;;;;;;5037358;28;20636;-56
2023/01/13 01:34:29;;;;;;;0.60;0.60;;;11.40;99.90;;;;;;5020484;28;20203;-57
2023/01/13 01:36:54;;;;;;;0.40;0.40;;;11.50;99.90;;;;;;5031070;28;20187;-56
2023/01/13 01:39:20;;;;;;;3.37;1.87;;;11.50;99.90;;;;;;5025929;28;20609;-57
2023/01/13 01:43:58;;;;;;;0.70;0.70;;;11.50;99.90;;;;;;5027363;28;20230;-57
2023/01/13 01:44:54;;;;;;;0.50;0.50;;;11.40;99.90;;;;;;5019011;28;20212;-56
2023/01/13 01:47:21;;;;;;;0.40;0.40;;;11.40;99.90;;;;;;5021585;28;20240;-57
2023/01/13 01:49:48;;;;;;;1.60;0.60;;;11.60;99.90;;;;;;5014861;28;20221;-55
2023/01/13 01:52:21;;;;;;;1.53;0.57;;;11.80;99.90;;;;;;5030489;28;20690;-56
2023/01/13 01:55:05;;;;;;;0.70;0.70;;;12.00;99.90;;;;;;5035030;28;20667;-56
2023/01/13 01:57:45;;;;;;;0.50;0.40;;;12.00;99.90;;;;;;5034608;28;20291;-55
2023/01/13 02:00:11;;;;;;;0.60;0.60;;;11.90;99.90;;;;;;5037800;28;20265;-68
2023/01/13 02:02:37;;;;;;;2.43;1.00;;;12.00;99.90;;;;;;5036415;28;20823;-69
2023/01/13 02:05:03;;;;;;;2.00;0.90;;;12.10;99.90;;;;;;5029494;28;20537;-63
2023/01/13 02:07:31;;;;;;;1.73;0.70;;;11.80;99.90;;;;;;5018206;28;20197;-62
2023/01/13 02:10:02;;;;;;;0.97;0.50;;;11.40;99.90;;;;;;5008480;28;20213;-62
2023/01/13 02:12:31;;;;;;;0.57;0.57;;;11.10;99.90;;;;;;5024775;28;20205;-63
2023/01/13 02:15:12;;;;;;;0.50;0.50;;;10.80;99.90;;;;;;5027818;28;20195;-63
2023/01/13 02:18:15;;;;;;;1.03;1.03;;;10.60;99.90;;;;;;5023398;28;20203;-63
2023/01/13 02:21:13;;;;;;;0.60;0.60;;;10.40;99.90;;;;;;5022072;28;20646;-63
2023/01/13 02:27:06;;;;;;;0.50;0.50;;;10.10;99.90;;;;;;5025751;28;20253;-63
2023/01/13 02:33:08;;;;;;;0.60;0.60;;;10.00;99.90;;;;;;5017622;28;20211;-62
2023/01/13 02:35:54;;;;;;;1.13;0.57;;;10.00;99.90;;;;;;5034222;28;20300;-62
2023/01/13 02:38:26;;;;;;;0.83;0.70;;;10.00;99.90;;;;;;5025021;28;20261;-63
2023/01/13 02:44:05;;;;;;;0.40;0.40;;;10.00;99.90;;;;;;5022481;28;20207;-63
2023/01/13 02:44:06;;;;;;;0.27;0.27;;;10.00;99.90;;;;;;5017601;28;20207;-63
2023/01/13 02:46:52;;;;;;;1.40;0.80;;;9.90;99.90;;;;;;5028462;28;20215;-62
2023/01/13 02:49:29;;;;;;;1.80;0.50;;;9.90;99.90;;;;;;5024392;28;20219;-66
2023/01/13 02:52:03;;;;;;;0.67;0.50;;;10.10;99.90;;;;;;5008100;28;20200;-68
2023/01/13 02:54:33;;;;;;;1.80;0.60;;;10.40;99.90;;;;;;5008674;28;20200;-66
2023/01/13 02:56:59;;;;;;;0.23;0.23;;;10.40;99.90;;;;;;5002201;28;20203;-66
2023/01/13 02:59:26;;;;;;;0.40;0.40;;;10.40;99.90;;;;;;5010820;28;20207;-65
2023/01/13 03:01:55;;;;;;;1.53;0.43;;;10.30;99.90;;;;;;5009518;28;20204;-65
2023/01/13 03:04:45;;;;;;;0.50;0.50;;;10.30;99.90;;;;;;5009580;28;20210;-66
2023/01/13 03:07:41;;;;;;;0.50;0.40;;;10.40;99.90;;;;;;5016824;28;20207;-66
2023/01/13 03:10:26;;;;;;;0.40;0.40;;;10.40;99.90;;;;;;5009200;28;20211;-65
2023/01/13 03:13:17;;;;;;;0.97;0.40;;;10.30;99.90;;;;;;5013122;28;20294;-65
2023/01/13 03:16:06;;;;;;;0.50;0.50;;;10.30;99.90;;;;;;5008508;28;20208;-65
2023/01/13 03:18:49;;;;;;;0.57;0.57;;;10.30;99.90;;;;;;5004923;28;20353;-66
2023/01/13 03:21:50;;;;;;;0.30;0.30;;;10.20;99.90;;;;;;5006363;28;20349;-66
2023/01/13 03:24:32;;;;;;;2.33;0.60;;;10.20;99.90;;;;;;5014318;28;20245;-66
2023/01/13 03:27:01;;;;;;;0.37;0.37;;;10.30;99.90;;;;;;5012453;28;20222;-66
2023/01/13 03:29:52;;;;;;;0.60;0.50;;;10.20;99.90;;;;;;5014792;28;20207;-65
2023/01/13 03:32:39;;;;;;;0.40;0.40;;;10.20;99.90;;;;;;5014366;28;20274;-62
2023/01/13 03:35:22;;;;;;;0.40;0.40;;;10.30;99.90;;;;;;5009060;28;20701;-62
2023/01/13 03:38:02;;;;;;;0.47;0.47;;;10.10;99.90;;;;;;5005884;28;20269;-61
2023/01/13 03:40:35;;;;;;;0.20;0.20;;;10.00;99.90;;;;;;5008241;28;20203;-62
2023/01/13 03:45:56;;;;;;;0.47;0.47;;;9.90;99.90;;;;;;5025880;28;20262;-64
2023/01/13 03:48:25;;;;;;;1.50;0.30;;;9.90;99.90;;;;;;5035742;28;20267;-64
2023/01/13 03:50:53;;;;;;;0.30;0.30;;;9.90;99.90;;;;;;5022120;28;20243;-63
2023/01/13 03:53:28;;;;;;;0.30;0.30;;;9.90;99.90;;;;;;5017821;28;20359;-62
2023/01/13 03:56:01;;;;;;;0.30;0.30;;;9.90;99.90;;;;;;5030855;28;20201;-63
2023/01/13 03:58:40;;;;;;;0.67;0.30;;;9.80;99.90;;;;;;5024702;28;20208;-64
2023/01/13 04:01:25;;;;;;;0.30;0.30;;;9.80;99.90;;;;;;5024951;28;20260;-62
2023/01/13 04:04:08;;;;;;;0.63;0.37;;;9.80;99.90;;;;;;5018801;28;20203;-63
2023/01/13 04:06:42;;;;;;;0.40;0.40;;;9.80;99.90;;;;;;5024045;28;20684;-62
2023/01/13 04:09:18;;;;;;;0.23;0.23;;;9.80;99.90;;;;;;5025356;28;20214;-61
2023/01/13 04:12:04;;;;;;;2.17;0.50;;;9.80;99.90;;;;;;5025718;28;20581;-62
2023/01/13 04:14:29;;;;;;;0.30;0.30;;;9.80;99.90;;;;;;5022113;28;20229;-63
2023/01/13 04:16:55;;;;;;;0.50;0.40;;;9.70;99.90;;;;;;5026565;28;20627;-62
2023/01/13 04:19:21;;;;;;;1.03;0.40;;;9.70;99.90;;;;;;5025597;28;20970;-63
2023/01/13 04:21:47;;;;;;;0.70;0.50;;;9.70;99.90;;;;;;5025041;28;20237;-61
2023/01/13 04:24:12;;;;;;;0.50;0.50;;;9.70;99.90;;;;;;5027421;28;20203;-62
2023/01/13 04:26:38;;;;;;;0.37;0.37;;;9.70;99.90;;;;;;5028321;28;20203;-64
2023/01/13 04:29:04;;;;;;;1.20;0.30;;;9.60;99.90;;;;;;5022774;28;20227;-61
2023/01/13 04:31:29;;;;;;;0.40;0.40;;;9.60;99.90;;;;;;5025411;28;20199;-62
2023/01/13 04:33:55;;;;;;;0.40;0.40;;;9.60;99.90;;;;;;5027977;28;20713;-62
2023/01/13 04:36:24;;;;;;;0.40;0.40;;;9.60;99.90;;;;;;5024137;28;20195;-63
2023/01/13 04:38:49;;;;;;;0.70;0.40;;;9.60;99.90;;;;;;5025116;28;20223;-63
2023/01/13 04:41:15;;;;;;;0.57;0.57;;;9.50;99.90;;;;;;5035841;28;20222;-63
2023/01/13 04:43:40;;;;;;;0.40;0.40;;;9.50;99.90;;;;;;5035641;28;20202;-64
2023/01/13 04:46:06;;;;;;;0.60;0.60;;;9.50;99.90;;;;;;5033451;28;20226;-63
2023/01/13 04:48:31;;;;;;;0.50;0.50;;;9.50;99.90;;;;;;5035548;28;20858;-62
2023/01/13 04:50:57;;;;;;;0.70;0.50;;;9.50;99.90;;;;;;5035541;28;20634;-62
2023/01/13 04:53:22;;;;;;;0.90;0.60;;;9.50;99.90;;;;;;5035450;28;20274;-62
2023/01/13 04:55:48;;;;;;;3.03;0.60;;;9.50;99.90;;;;;;5035154;28;20244;-63
2023/01/13 04:58:14;;;;;;;0.53;0.53;;;9.50;99.90;;;;;;5032897;28;20605;-63
2023/01/13 05:00:39;;;;;;;0.40;0.40;;;9.50;99.90;;;;;;5035064;28;20201;-62
2023/01/13 05:03:05;;;;;;;0.50;0.50;;;9.60;99.90;;;;;;5035352;28;20746;-64
2023/01/13 05:05:31;;;;;;;1.93;0.30;;;9.60;99.90;;;;;;5032634;28;20199;-63
2023/01/13 05:07:57;;;;;;;0.20;0.20;;;9.60;99.90;;;;;;5026376;28;20211;-63
2023/01/13 05:10:23;;;;;;;1.00;0.33;;;9.60;99.90;;;;;;5022964;28;20227;-62
2023/01/13 05:18:18;;;;;;;0.60;0.53;;;9.70;99.90;;;;;;5024186;28;20259;-63
2023/01/13 05:20:43;;;;;;;0.47;0.47;;;9.80;99.90;;;;;;5027169;28;20230;-62
2023/01/13 05:25:53;;;;;;;0.63;0.47;;;9.70;99.90;;;;;;5031345;28;20226;-64
2023/01/13 05:28:19;;;;;;;1.73;0.43;;;9.70;99.90;;;;;;5038583;28;20210;-62
2023/01/13 05:30:47;;;;;;;0.50;0.50;;;9.70;99.90;;;;;;5037902;28;20195;-62
2023/01/13 05:33:15;;;;;;;0.50;0.50;;;9.70;99.90;;;;;;5027609;28;20540;-64
2023/01/13 05:35:42;;;;;;;1.47;0.67;;;9.70;99.90;;;;;;5035246;28;20220;-63
2023/01/13 05:38:08;;;;;;;0.93;0.60;;;9.70;99.90;;;;;;5037814;28;20216;-62
2023/01/13 05:43:20;;;;;;;0.67;0.67;;;9.70;99.90;;;;;;5034327;28;20581;-64
2023/01/13 05:46:00;;;;;;;4.37;0.90;;;9.70;99.90;;;;;;5038575;28;20541;-63
2023/01/13 05:48:46;;;;;;;0.70;0.67;;;9.60;99.90;;;;;;5038325;28;20210;-64
2023/01/13 05:51:12;;;;;;;1.73;0.70;;;9.60;99.90;;;;;;5038002;28;20201;-63
2023/01/13 05:53:39;;;;;;;0.60;0.60;;;9.60;99.90;;;;;;5033479;28;20200;-64
2023/01/13 05:56:06;;;;;;;0.80;0.47;;;9.60;99.90;;;;;;5037924;28;20199;-63
2023/01/13 05:58:31;;;;;;;0.70;0.47;;;9.60;99.90;;;;;;5037673;28;20214;-63
2023/01/13 06:01:01;;;;;;;2.73;2.37;;;9.50;99.90;;;;;;5036723;28;20195;-64
2023/01/13 06:03:27;;;;;;;2.03;0.93;;;9.60;99.90;;;;;;5034579;28;20289;-63
2023/01/13 06:05:57;;;;;;;0.70;0.70;;;9.60;99.90;;;;;;5026614;28;20291;-63
2023/01/13 06:08:23;;;;;;;0.80;0.80;;;9.60;99.90;;;;;;5028044;28;20298;-64
2023/01/13 06:10:48;;;;;;;3.47;2.43;;;9.60;99.90;;;;;;5025155;28;20278;-63
2023/01/13 06:13:14;;;;;;;2.23;1.37;;;9.60;99.90;;;;;;5027822;28;20285;-62
2023/01/13 06:15:39;;;;;;;4.00;2.10;;;9.60;99.90;;;;;;5026731;28;20194;-63
2023/01/13 06:18:05;;;;;;;3.50;1.30;;;9.50;99.90;;;;;;5026710;28;20265;-63
2023/01/13 06:20:31;;;;;;;5.43;3.20;;;9.50;99.90;;;;;;5027627;28;20205;-63
2023/01/13 06:22:57;;;;;;;2.00;1.70;;;9.40;99.90;;;;;;5027425;28;20246;-64
2023/01/13 06:25:45;;;;;;;0.70;0.70;;;9.40;99.90;;;;;;5018559;28;20702;-63
2023/01/13 06:28:10;;;;;;;0.73;0.60;;;9.40;99.90;;;;;;5028143;28;20678;-63
2023/01/13 06:30:42;;;;;;;0.67;0.67;;;9.40;99.90;;;;;;5028500;28;20208;-62
2023/01/13 06:33:12;;;;;;;1.00;1.00;;;9.50;99.90;;;;;;5031697;28;20716;-62
2023/01/13 06:35:41;;;;;;;0.83;0.80;;;9.50;99.90;;;;;;5026920;28;20586;-63
2023/01/13 06:38:10;;;;;;;0.90;0.90;;;9.50;99.90;;;;;;5030659;28;20210;-64
2023/01/13 06:40:36;;;;;;;2.83;0.90;;;9.50;99.90;;;;;;5022197;28;20219;-63
2023/01/13 06:43:13;;;;;;;0.67;0.67;;;9.60;99.90;;;;;;5024887;28;20234;-62
2023/01/13 06:45:40;;;;;;;5.07;1.13;;;9.60;99.90;;;;;;5025119;28;20206;-62
2023/01/13 06:48:06;;;;;;;0.50;0.50;;;9.60;99.90;;;;;;5026068;28;20685;-62
2023/01/13 06:50:31;;;;;;;0.80;0.73;;;9.70;99.90;;;;;;5028940;28;20207;-66
2023/01/13 06:52:57;;;;;;;1.20;0.70;;;9.70;99.90;;;;;;5036456;28;21102;-67
2023/01/13 06:55:23;;;;;;;2.00;0.90;;;9.80;99.90;;;;;;5028314;28;20199;-65
2023/01/13 06:57:49;;;;;;;1.10;0.97;;;9.90;99.90;;;;;;5031168;28;20225;-66
2023/01/13 07:00:15;;;;;;;0.80;0.80;;;9.90;99.90;;;;;;5034488;28;20201;-66
2023/01/13 07:02:40;;;;;;;3.33;0.90;;;9.90;99.90;;;;;;5036510;28;20686;-66
2023/01/13 07:05:06;;;;;;;0.77;0.70;;;9.90;99.90;;;;;;5035821;28;20248;-65
2023/01/13 07:07:32;;;;;;;0.80;0.50;;;9.90;99.90;;;;;;5036430;28;20214;-66
2023/01/13 07:09:58;;;;;;;0.53;0.53;;;9.90;99.90;;;;;;5026667;28;20272;-66
2023/01/13 07:12:23;;;;;;;0.67;0.67;;;10.00;99.90;;;;;;5024839;28;20221;-66
2023/01/13 07:17:33;;;;;;;0.67;0.50;;;10.00;99.90;;;;;;5025769;28;20212;-66
2023/01/13 07:19:58;;;;;;;1.17;0.70;;;10.00;99.90;;;;;;5024491;28;20591;-65
2023/01/13 07:22:24;;;;;;;0.73;0.73;;;10.00;99.90;;;;;;5027047;28;20219;-67
2023/01/13 07:24:49;;;;;;;0.77;0.77;;;10.00;99.90;;;;;;5026983;28;20295;-66
2023/01/13 07:27:15;;;;;;;0.83;0.63;;;10.00;99.90;;;;;;5026675;28;20239;-66
2023/01/13 07:29:40;;;;;;;0.53;0.50;;;10.10;99.90;;;;;;5031396;28;20234;-66
2023/01/13 07:32:06;;;;;;;2.77;0.80;;;10.10;99.90;;;;;;5034859;28;20226;-66
2023/01/13 07:34:32;;;;;;;0.50;0.50;;;10.10;99.90;;;;;;5034840;28;20228;-66
2023/01/13 07:36:57;;;;;;;0.50;0.50;;;10.10;99.90;;;;;;5030753;28;20234;-67
2023/01/13 07:39:23;;;;;;;0.83;0.40;;;10.00;99.90;;;;;;5029117;28;20364;-66
2023/01/13 07:44:33;;;;;;;1.13;0.90;;;10.10;99.90;;;;;;5021277;28;20312;-66
2023/01/13 07:46:58;;;;;;;1.90;0.60;;;10.10;99.90;;;;;;5023425;28;20249;-66
2023/01/13 07:49:24;;;;;;;1.03;0.60;;;10.10;99.90;;;;;;5026195;28;20685;-65
2023/01/13 07:51:49;;;;;;;1.10;0.83;;;10.10;99.90;;;;;;5021479;28;20196;-68
2023/01/13 07:54:15;;;;;;;1.17;0.80;;;10.10;99.90;;;;;;5015338;28;20195;-66
2023/01/13 07:56:40;;;;;;;0.60;0.60;;;10.10;99.90;;;;;;5026542;28;20280;-66
2023/01/13 07:59:05;;;;;;;1.07;0.97;;;10.10;99.90;;;;;;5025307;28;20198;-66
2023/01/13 08:01:31;;;;;;;0.50;0.50;;;10.10;99.90;;;;;;5027824;28;20207;-65
2023/01/13 08:03:57;;;;;;;0.97;0.60;;;10.20;99.90;;;;;;5035071;28;20210;-66
2023/01/13 08:06:23;;;;;;;1.00;0.90;;;10.20;99.90;;;;;;5035575;28;20303;-65
2023/01/13 08:08:49;;;;;;;1.87;0.87;;;10.20;99.90;;;;;;5029080;28;20692;-67
2023/01/13 08:11:15;;;;;;;5.00;0.70;;;10.20;99.90;;;;;;5021579;28;20204;-66
2023/01/13 08:13:40;;;;;;;0.77;0.63;;;10.30;99.90;;;;;;5028186;28;20720;-67
2023/01/13 08:16:09;;;;;;;1.23;0.70;;;10.40;99.90;;;;;;5023770;28;20654;-68
2023/01/13 08:18:36;;;;;;;0.70;0.70;;;10.40;99.90;;;;;;5024159;28;20204;-66
2023/01/13 08:21:04;;;;;;;5.03;0.77;;;10.40;99.90;;;;;;5025372;28;20214;-65
2023/01/13 08:23:30;;;;;;;0.70;0.70;;;10.40;99.90;;;;;;5025644;28;20211;-66
2023/01/13 08:26:00;;;;;;;4.33;0.77;;;10.50;99.90;;;;;;5025531;28;20199;-66
2023/01/13 08:28:25;;;;;;;0.60;0.60;;;10.50;99.90;;;;;;5031517;28;20615;-68
2023/01/13 08:30:52;;;;;;;0.57;0.57;;;10.50;99.90;;;;;;5008913;28;20207;-67
2023/01/13 08:33:18;;;;;;;1.27;0.40;;;10.50;99.90;;;;;;5020141;28;20211;-67
2023/01/13 08:35:44;;;;;;;1.13;1.03;;;10.50;99.90;;;;;;5023102;28;20287;-65
2023/01/13 08:38:09;;;;;;;0.53;0.53;;;10.50;99.90;;;;;;5027125;28;20192;-65
2023/01/13 08:40:35;;;;;;;1.90;0.73;;;10.40;99.90;;;;;;5027010;28;20301;-66
2023/01/13 08:43:01;;;;;;;0.50;0.40;;;10.30;99.90;;;;;;5028255;28;20230;-66
2023/01/13 08:45:26;;;;;;;2.90;0.73;;;10.30;99.90;;;;;;5024915;28;20745;-65
2023/01/13 08:47:52;;;;;;;0.73;0.53;;;10.20;99.90;;;;;;5026127;28;20204;-65
2023/01/13 08:50:18;;;;;;;0.93;0.80;;;10.10;99.90;;;;;;5028754;28;20691;-66
2023/01/13 08:52:44;;;;;;;0.57;0.53;;;10.20;99.90;;;;;;5032608;28;20206;-65
2023/01/13 08:55:10;;;;;;;1.23;0.67;;;10.20;99.90;;;;;;5034871;28;20210;-67
2023/01/13 08:57:36;;;;;;;0.60;0.60;;;10.20;99.90;;;;;;5022729;28;20953;-66
2023/01/13 09:00:04;;;;;;;1.33;0.67;;;10.10;99.90;;;;;;5028985;28;20209;-66
2023/01/13 09:02:29;;;;;;;1.53;0.87;;;10.10;99.90;;;;;;5029124;28;20226;-65
2023/01/13 09:04:55;;;;;;;1.80;0.83;;;10.10;99.90;;;;;;5029273;28;20240;-66
2023/01/13 09:07:21;;;;;;;0.60;0.60;;;10.10;99.90;;;;;;5027390;28;20254;-66
2023/01/13 09:09:46;;;;;;;1.07;0.60;;;10.20;99.90;;;;;;5028157;28;20214;-64
2023/01/13 09:14:58;;;;;;;1.17;0.70;;;10.20;99.90;;;;;;5019979;28;20561;-65
2023/01/13 09:17:24;;;;;;;2.27;0.97;;;10.10;99.90;;;;;;5029180;28;20195;-66
2023/01/13 09:19:50;;;;;;;2.50;1.13;;;10.10;99.90;;;;;;5031341;28;20744;-64
2023/01/13 09:22:17;;;;;;;2.90;0.90;;;10.10;99.90;;;;;;5033214;28;20696;-66
2023/01/13 09:24:43;;;;;;;3.57;1.17;;;10.10;99.90;;;;;;5036790;28;20276;-66
2023/01/13 09:27:11;;;;;;;2.33;0.90;;;10.30;99.90;;;;;;5024896;28;20646;-66
2023/01/13 09:29:36;;;;;;;3.63;0.90;;;10.20;99.90;;;;;;5037703;28;20223;-64
2023/01/13 09:32:03;;;;;;;1.93;1.07;;;10.30;99.90;;;;;;5033246;28;20340;-65
2023/01/13 09:37:12;;;;;;;1.73;0.90;;;10.30;99.90;;;;;;5038636;28;20275;-64
2023/01/13 09:39:38;;;;;;;2.37;0.90;;;10.20;99.90;;;;;;5038314;28;20207;-65
2023/01/13 09:45:13;;;;;;;2.60;1.17;;;10.10;99.90;;;;;;5037803;28;20256;-65
2023/01/13 09:47:50;;;;;;;1.63;0.80;;;10.00;99.90;;;;;;5038370;28;20293;-66
2023/01/13 09:50:33;;;;;;;3.37;0.90;;;9.90;99.90;;;;;;5038131;28;20216;-66
2023/01/13 09:52:59;;;;;;;3.77;1.17;;;9.80;99.90;;;;;;5037501;28;20276;-66
2023/01/13 09:55:35;;;;;;;2.00;1.13;;;9.70;99.90;;;;;;5038054;28;20573;-67
2023/01/13 09:58:10;;;;;;;1.20;1.20;;;9.70;99.90;;;;;;5035673;28;20198;-65
2023/01/13 10:00:40;;;;;;;2.50;1.00;;;9.80;99.90;;;;;;5036302;28;20266;-67
2023/01/13 10:03:08;;;;;;;2.00;0.80;;;9.80;99.90;;;;;;5032543;28;20203;-69
2023/01/13 10:05:40;;;;;;;0.60;0.60;;;9.90;99.90;;;;;;5035138;28;20573;-66
2023/01/13 10:08:31;;;;;;;2.13;0.77;;;9.90;99.90;;;;;;5037493;28;20192;-66
2023/01/13 10:13:12;;;;;;;1.60;1.40;;;9.90;99.90;;;;;;5037719;28;20312;-66
2023/01/13 10:13:47;;;;;;;0.90;0.70;;;9.90;99.90;;;;;;5024047;28;20249;-67
2023/01/13 10:16:26;;;;;;;0.67;0.67;;;9.90;99.90;;;;;;5036180;28;20226;-65
2023/01/13 10:18:59;;;;;;;1.13;0.60;;;9.90;99.90;;;;;;5036323;28;20213;-66
2023/01/13 10:21:56;;;;;;;2.07;0.87;;;9.90;99.90;;;;;;5029809;28;20243;-65
2023/01/13 10:24:50;;;;;;;0.63;0.63;;;9.90;99.90;;;;;;5036485;28;20206;-64
2023/01/13 10:27:27;;;;;;;0.80;0.60;;;10.00;99.90;;;;;;5030039;28;20202;-65
2023/01/13 10:29:53;;;;;;;2.00;1.00;;;10.10;99.90;;;;;;5034583;28;20214;-64
2023/01/13 10:32:19;;;;;;;1.67;0.60;;;10.00;99.90;;;;;;5037294;28;20802;-66
2023/01/13 10:34:49;;;;;;;1.10;0.57;;;10.00;99.90;;;;;;5037540;28;20203;-66
2023/01/13 10:37:25;;;;;;;3.17;0.80;;;10.10;99.90;;;;;;5037929;28;20292;-66
2023/01/13 10:39:55;;;;;;;1.40;0.73;;;10.30;99.90;;;;;;5036989;28;20201;-66
2023/01/13 10:42:22;;;;;;;1.90;0.70;;;10.30;99.90;;;;;;5037107;28;20317;-66
2023/01/13 10:44:58;;;;;;;0.50;0.50;;;10.30;99.90;;;;;;5036929;28;20310;-66
2023/01/13 10:47:34;;;;;;;2.07;0.70;;;10.30;99.90;;;;;;5026909;28;20670;-66
2023/01/13 10:50:17;;;;;;;2.97;0.97;;;10.30;99.90;;;;;;5026453;28;20219;-66
2023/01/13 10:52:58;;;;;;;0.70;0.70;;;10.20;99.90;;;;;;5033350;28;20201;-67
2023/01/13 10:55:32;;;;;;;1.87;1.00;;;10.20;99.90;;;;;;5035002;28;20226;-66
2023/01/13 10:58:16;;;;;;;1.73;0.73;;;10.10;99.90;;;;;;5037172;28;20604;-66
2023/01/13 11:00:41;;;;;;;1.07;0.53;;;10.10;99.90;;;;;;5033992;28;20282;-66
2023/01/13 11:03:14;;;;;;;2.83;1.10;;;10.20;99.90;;;;;;5032053;28;20281;-65
2023/01/13 11:05:57;;;;;;;0.50;0.50;;;10.40;99.90;;;;;;5024928;28;20226;-66
2023/01/13 11:08:26;;;;;;;2.77;0.83;;;10.40;99.90;;;;;;5021498;28;20260;-66
2023/01/13 11:10:54;;;;;;;1.83;0.60;;;10.40;99.90;;;;;;5026823;28;20815;-65
2023/01/13 11:13:26;;;;;;;0.83;0.77;;;10.60;99.90;;;;;;5034461;28;20211;-65
2023/01/13 11:16:11;;;;;;;5.50;1.23;;;10.60;99.90;;;;;;5030326;28;20373;-65
2023/01/13 11:18:36;;;;;;;0.83;0.77;;;10.50;99.90;;;;;;5036120;28;20214;-65
2023/01/13 11:21:23;;;;;;;1.07;0.80;;;10.60;99.90;;;;;;5034460;28;20410;-66
2023/01/13 11:24:09;;;;;;;1.17;0.70;;;10.60;99.90;;;;;;5030378;28;20569;-64
2023/01/13 11:26:45;;;;;;;2.30;0.70;;;10.70;99.90;;;;;;5026759;28;20200;-65
2023/01/13 11:29:19;;;;;;;1.43;0.80;;;10.90;99.90;;;;;;5032691;28;20258;-65
2023/01/13 11:31:53;;;;;;;1.73;1.20;;;11.10;99.90;;;;;;5036156;28;20216;-65
2023/01/13 11:34:31;;;;;;;0.70;0.50;;;11.30;99.90;;;;;;5035182;28;20367;-65
2023/01/13 11:37:02;;;;;;;2.10;0.60;;;11.30;99.90;;;;;;5024392;28;20201;-66
2023/01/13 11:39:52;;;;;;;1.07;0.50;;;11.50;99.90;;;;;;5036008;28;20592;-66
2023/01/13 11:42:26;;;;;;;0.90;0.70;;;11.60;99.90;;;;;;5035661;28;20305;-61
2023/01/13 11:45:18;;;;;;;1.73;0.63;;;11.90;99.90;;;;;;5033264;28;20209;-62
2023/01/13 11:47:52;;;;;;;2.37;0.90;;;12.30;99.90;;;;;;5025013;28;20282;-63
2023/01/13 11:50:43;;;;;;;2.03;1.10;;;12.50;99.90;;;;;;5021274;28;20212;-62
2023/01/13 11:53:27;;;;;;;1.00;0.60;;;12.80;99.90;;;;;;5015870;28;20203;-63
2023/01/13 11:56:07;;;;;;;1.23;1.00;;;13.10;99.90;;;;;;5005658;28;20262;-64
2023/01/13 11:58:54;;;;;;;1.20;0.83;;;13.20;99.90;;;;;;5010401;28;20624;-62
2023/01/13 12:01:46;;;;;;;1.13;0.77;;;13.30;99.90;;;;;;5014289;28;20205;-63
2023/01/13 12:04:25;;;;;;;2.10;1.37;;;13.40;99.90;;;;;;5010760;28;20210;-63
2023/01/13 12:07:12;;;;;;;1.20;0.70;;;13.30;99.90;;;;;;5011922;28;20206;-63
2023/01/13 12:10:01;;;;;;;2.70;0.80;;;13.30;99.90;;;;;;5009098;28;20708;-63
2023/01/13 12:12:47;;;;;;;3.47;0.80;;;13.50;99.90;;;;;;5009823;28;20245;-62
2023/01/13 12:15:49;;;;;;;1.23;0.63;;;13.60;99.70;;;;;;5016701;28;20299;-61
2023/01/13 12:18:33;;;;;;;3.10;0.97;;;13.60;99.70;;;;;;5010059;28;20289;-62
2023/01/13 12:20:58;;;;;;;2.03;0.70;;;13.40;99.30;;;;;;5005825;28;20213;-64
2023/01/13 12:23:49;;;;;;;4.37;1.23;;;13.50;99.30;;;;;;5011822;28;20205;-61
2023/01/13 12:26:16;;;;;;;1.33;0.80;;;13.70;98.50;;;;;;5013956;28;20192;-60
2023/01/13 12:28:59;;;;;;;3.53;1.00;;;13.80;98.10;;;;;;5013369;28;20227;-62
2023/01/13 12:31:26;;;;;;;4.33;1.43;;;13.90;98.20;;;;;;5018594;28;20673;-69
2023/01/13 12:33:58;;;;;;;2.97;1.30;;;14.00;97.40;;;;;;5028655;28;20282;-62
2023/01/13 12:36:48;;;;;;;2.20;0.97;;;14.20;97.10;;;;;;5029395;28;20680;-62
2023/01/13 12:39:51;;;;;;;4.43;1.53;;;14.30;97.00;;;;;;5034519;28;20699;-62
2023/01/13 12:45:11;;;;;;;3.03;1.40;;;14.60;95.70;;;;;;5030583;28;20210;-61
2023/01/13 12:47:42;;;;;;;1.20;0.80;;;14.80;95.10;;;;;;5024473;28;20246;-61
2023/01/13 12:50:26;;;;;;;3.10;1.10;;;14.50;95.00;;;;;;5021290;28;20247;-61
2023/01/13 12:52:56;;;;;;;2.47;0.83;;;14.60;93.60;;;;;;5018496;28;20194;-60
2023/01/13 12:55:24;;;;;;;3.47;1.00;;;14.30;93.30;;;;;;5031010;28;20199;-59
2023/01/13 12:58:05;;;;;;;1.37;0.77;;;13.60;93.40;;;;;;5028507;28;20208;-61
2023/01/13 13:00:40;;;;;;;2.20;1.30;;;12.80;94.90;;;;;;5025849;28;20279;-61
2023/01/13 13:03:12;;;;;;;1.43;0.97;;;13.00;94.80;;;;;;5018720;28;20241;-59
2023/01/13 13:06:08;;;;;;;3.73;1.40;;;13.20;94.90;;;;;;5028486;28;20985;-59
2023/01/13 13:08:39;;;;;;;3.20;1.10;;;12.80;94.90;;;;;;5017008;28;20234;-60
2023/01/13 13:14:00;;;;;;;2.03;1.30;;;12.50;96.70;;;;;;5014859;28;20290;-61
2023/01/13 13:16:25;;;;;;;5.30;1.13;;;13.00;95.50;;;;;;5017840;28;20206;-65
2023/01/13 13:19:10;;;;;;;3.10;1.27;;;13.10;95.40;;;;;;5026335;28;20607;-64
2023/01/13 13:22:12;;;;;;;6.03;2.10;;;12.80;95.30;;;;;;5030226;28;20709;-62
2023/01/13 13:24:47;;;;;;;5.23;1.23;;;12.30;96.10;;;;;;5024794;28;20251;-62
2023/01/13 13:27:25;;;;;;;2.30;1.00;;;12.00;96.90;;;;;;5036060;28;20202;-72
2023/01/13 13:30:13;;;;;;;6.77;1.37;;;11.80;97.20;;;;;;5027535;28;20288;-77
2023/01/13 13:33:06;;;;;;;3.03;1.43;;;11.70;97.50;;;;;;5023478;28;20197;-78
2023/01/13 13:35:50;;;;;;;2.40;1.03;;;11.50;97.70;;;;;;5030939;28;20230;-80
2023/01/13 13:47:13;;;;;;;1.33;1.00;;;10.60;99.70;;;;;;5035725;28;20925;-79
2023/01/13 13:49:45;;;;;;;3.43;1.70;;;10.60;99.90;;;;;;5028439;28;20211;-80
2023/01/13 13:52:17;;;;;;;4.97;1.63;;;10.60;99.90;;;;;;5025072;28;20696;-76
2023/01/13 13:54:47;;;;;;;2.03;1.20;;;10.60;99.90;;;;;;5027008;28;20203;-76
2023/01/13 13:57:25;;;;;;;4.20;1.80;;;10.50;99.90;;;;;;5010025;28;20197;-74
2023/01/13 13:59:54;;;;;;;5.27;0.83;;;10.40;99.90;;;;;;5003847;28;20310;-76
2023/01/13 14:02:28;;;;;;;4.93;1.23;;;10.30;99.90;;;;;;5018816;28;20206;-79
2023/01/13 14:05:13;;;;;;;5.50;1.50;;;10.30;99.90;;;;;;5023178;28;20285;-79